Terminal Aerodrome Forecast
Issued by NWS

Home | Current Version | Previous Version | Text Only | Print | Product List | Glossary On
Versions: 1 2 3 4 5 6 7 8 9 10 11 12 13 14 15
605
FTUS43 KOAX 122320
TAFCDR
TAF
KCDR 122320Z 1300/1324 10007KT P6SM SCT015 OVC025
     FM130200 12007KT 4SM BR OVC015
     FM130400 17009KT 2SM BR OVC007
     FM131600 21008KT P6SM OVC025=

USA.gov is the U.S. government's official web portal to all federal, state and local government web resources and services.